Time;durP1;ratioP1;P1;durP2;ratioP2;P2;SDS_P1;SDS_P2;PMS_P1;PMS_P2;Temp;Humidity;BMP_temperature;BMP_pressure;BME280_temperature;BME280_humidity;BME280_pressure;Samples;Min_cycle;Max_cycle;Signal;HPM_P1;HPM_P2
2023/05/15 00:02:13;;;;;;;4.72;3.30;;;14.60;99.90;;;;;;5092889;28;20073;-88
2023/05/15 00:04:38;;;;;;;8.05;3.67;;;14.50;99.90;;;;;;5091674;28;20077;-85
2023/05/15 00:07:04;;;;;;;5.05;3.65;;;14.40;99.90;;;;;;5092905;28;20039;-86
2023/05/15 00:09:30;;;;;;;5.45;3.35;;;14.30;99.90;;;;;;5094093;28;20043;-86
2023/05/15 00:11:56;;;;;;;4.10;3.38;;;14.30;99.90;;;;;;5093057;28;20024;-81
2023/05/15 00:14:21;;;;;;;5.32;3.50;;;14.30;99.90;;;;;;5091549;28;20036;-81
2023/05/15 00:16:47;;;;;;;5.43;3.30;;;14.40;99.90;;;;;;5093358;28;20435;-83
2023/05/15 00:19:13;;;;;;;4.50;3.42;;;14.40;99.90;;;;;;5096245;28;20024;-83
2023/05/15 00:21:39;;;;;;;5.13;3.20;;;14.30;99.90;;;;;;5096717;28;20086;-82
2023/05/15 00:24:04;;;;;;;4.97;3.17;;;14.30;99.90;;;;;;5096011;28;20047;-84
2023/05/15 00:26:30;;;;;;;4.05;2.97;;;14.20;99.90;;;;;;5096554;28;20115;-83
2023/05/15 00:28:56;;;;;;;6.65;3.70;;;14.20;99.90;;;;;;5096447;28;20062;-83
2023/05/15 00:31:21;;;;;;;4.78;3.30;;;14.20;99.90;;;;;;5095976;28;20051;-83
2023/05/15 00:33:47;;;;;;;6.68;3.50;;;14.20;99.90;;;;;;5096447;28;20020;-82
2023/05/15 00:36:12;;;;;;;4.57;3.00;;;14.20;99.90;;;;;;5096183;28;20020;-83
2023/05/15 00:38:39;;;;;;;5.80;3.42;;;14.20;99.90;;;;;;5096749;28;20039;-82
2023/05/15 00:41:06;;;;;;;4.45;3.30;;;14.10;99.90;;;;;;5104814;28;20052;-82
2023/05/15 00:43:33;;;;;;;5.53;3.67;;;14.00;99.90;;;;;;5096701;28;20050;-82
2023/05/15 00:46:00;;;;;;;5.90;3.47;;;14.10;99.90;;;;;;5095767;28;20381;-83
2023/05/15 00:48:28;;;;;;;5.00;3.03;;;14.10;99.90;;;;;;5097359;28;20036;-83
2023/05/15 00:50:56;;;;;;;5.00;3.30;;;14.10;99.90;;;;;;5096715;28;20032;-83
2023/05/15 00:53:22;;;;;;;4.80;3.20;;;14.20;99.90;;;;;;5100429;28;20031;-83
2023/05/15 00:55:48;;;;;;;3.97;3.10;;;14.20;99.90;;;;;;5100192;28;20032;-83
2023/05/15 00:58:15;;;;;;;6.13;3.10;;;14.20;99.90;;;;;;5098607;28;20032;-83
2023/05/15 01:00:45;;;;;;;4.95;3.58;;;14.10;99.90;;;;;;5097110;28;20051;-83
2023/05/15 01:03:10;;;;;;;4.38;3.20;;;14.10;99.90;;;;;;5097748;28;20038;-83
2023/05/15 01:05:36;;;;;;;3.92;3.10;;;14.10;99.90;;;;;;5096384;28;20447;-82
2023/05/15 01:08:25;;;;;;;3.20;2.90;;;14.20;99.90;;;;;;5092937;28;20028;-83
2023/05/15 01:10:51;;;;;;;3.80;2.78;;;14.20;99.90;;;;;;5096028;28;20031;-83
2023/05/15 01:13:20;;;;;;;4.90;3.38;;;14.20;99.90;;;;;;5095457;28;20047;-83
2023/05/15 01:15:47;;;;;;;5.38;3.40;;;14.20;99.90;;;;;;5096308;28;20525;-83
2023/05/15 01:18:13;;;;;;;4.25;3.28;;;14.20;99.90;;;;;;5095533;28;20039;-83
2023/05/15 01:21:06;;;;;;;6.03;3.50;;;14.20;99.90;;;;;;5096363;28;20488;-83
2023/05/15 01:24:09;;;;;;;4.80;3.17;;;14.20;99.90;;;;;;5096264;28;20032;-83
2023/05/15 01:27:06;;;;;;;3.70;2.88;;;14.10;99.90;;;;;;5096076;28;20059;-82
2023/05/15 01:29:59;;;;;;;4.95;3.10;;;14.10;99.90;;;;;;5094222;28;20039;-81
2023/05/15 01:32:48;;;;;;;6.90;3.70;;;14.10;99.90;;;;;;5096290;28;20029;-83
2023/05/15 01:35:39;;;;;;;4.63;3.40;;;14.10;99.90;;;;;;5078696;28;20024;-83
2023/05/15 01:38:31;;;;;;;6.80;3.20;;;14.00;99.90;;;;;;5095260;28;20024;-83
2023/05/15 01:41:03;;;;;;;4.82;3.35;;;14.00;99.90;;;;;;5095539;28;20051;-82
2023/05/15 01:43:32;;;;;;;6.05;3.95;;;13.90;99.90;;;;;;5095925;28;20400;-83
2023/05/15 01:45:58;;;;;;;5.68;4.10;;;13.90;99.90;;;;;;5095632;28;20031;-82
2023/05/15 01:48:26;;;;;;;6.43;3.80;;;13.90;99.90;;;;;;5094584;28;20032;-83
2023/05/15 01:50:56;;;;;;;4.53;3.40;;;13.90;99.90;;;;;;5095632;28;20495;-83
2023/05/15 01:53:21;;;;;;;4.85;3.40;;;13.90;99.90;;;;;;5095849;28;20795;-82
2023/05/15 01:55:48;;;;;;;3.85;3.20;;;13.80;99.90;;;;;;5095523;28;20532;-82
2023/05/15 01:58:14;;;;;;;4.30;3.30;;;13.80;99.90;;;;;;5094483;28;20055;-81
2023/05/15 02:00:43;;;;;;;5.53;3.20;;;13.80;99.90;;;;;;5094897;28;20020;-82
2023/05/15 02:03:09;;;;;;;4.47;3.67;;;13.80;99.90;;;;;;5094954;28;20097;-82
2023/05/15 02:05:36;;;;;;;5.68;3.83;;;13.80;99.90;;;;;;5095337;28;20036;-83
2023/05/15 02:08:03;;;;;;;5.65;3.60;;;13.70;99.90;;;;;;5095095;28;20086;-82
2023/05/15 02:10:30;;;;;;;8.70;4.10;;;13.70;99.90;;;;;;5096061;28;20043;-82
2023/05/15 02:12:56;;;;;;;8.18;4.10;;;13.70;99.90;;;;;;5095071;28;20119;-82
2023/05/15 02:15:23;;;;;;;5.10;4.05;;;13.80;99.90;;;;;;5094811;28;20055;-83
2023/05/15 02:17:48;;;;;;;6.13;4.32;;;13.80;99.90;;;;;;5094933;28;20039;-82
2023/05/15 02:20:14;;;;;;;6.50;4.05;;;13.80;99.90;;;;;;5095443;28;20024;-81
2023/05/15 02:22:40;;;;;;;5.93;4.30;;;13.70;99.90;;;;;;5094734;28;20028;-82
2023/05/15 02:25:05;;;;;;;6.40;4.43;;;13.70;99.90;;;;;;5094090;28;20034;-82
2023/05/15 02:27:46;;;;;;;7.80;5.18;;;13.70;99.90;;;;;;5095902;28;20038;-81
2023/05/15 02:30:28;;;;;;;5.65;4.18;;;13.60;99.90;;;;;;5094158;28;20036;-82
2023/05/15 02:33:11;;;;;;;7.80;4.60;;;13.70;99.90;;;;;;5095516;28;20035;-82
2023/05/15 02:35:48;;;;;;;5.50;4.03;;;13.60;99.90;;;;;;5094505;28;20035;-82
2023/05/15 02:38:29;;;;;;;7.70;4.85;;;13.60;99.90;;;;;;5094236;28;20028;-82
2023/05/15 02:40:56;;;;;;;6.72;4.47;;;13.60;99.90;;;;;;5093729;28;20058;-81
2023/05/15 02:43:22;;;;;;;5.65;4.70;;;13.60;99.90;;;;;;5094004;28;20082;-82
2023/05/15 02:45:49;;;;;;;6.80;4.57;;;13.60;99.90;;;;;;5094185;28;20453;-82
2023/05/15 02:48:16;;;;;;;7.45;4.93;;;13.50;99.90;;;;;;5095054;28;20100;-82
2023/05/15 02:50:42;;;;;;;7.55;4.65;;;13.50;99.90;;;;;;5095304;28;20103;-82
2023/05/15 02:53:08;;;;;;;6.63;4.40;;;13.50;99.90;;;;;;5094876;28;20111;-83
2023/05/15 02:55:35;;;;;;;5.72;4.30;;;13.40;99.90;;;;;;5095283;28;20050;-82
2023/05/15 02:58:02;;;;;;;8.63;4.30;;;13.40;99.90;;;;;;5095054;28;20088;-82
2023/05/15 03:00:28;;;;;;;7.00;4.60;;;13.40;99.90;;;;;;5093651;28;20028;-83
2023/05/15 03:02:53;;;;;;;6.68;3.90;;;13.30;99.90;;;;;;5094008;28;20035;-82
2023/05/15 03:05:19;;;;;;;7.68;4.18;;;13.30;99.90;;;;;;5093508;28;20024;-81
2023/05/15 03:07:45;;;;;;;6.55;4.30;;;13.40;99.90;;;;;;5094804;28;20030;-83
2023/05/15 03:10:11;;;;;;;4.95;4.20;;;13.30;99.90;;;;;;5092967;28;20114;-82
2023/05/15 03:12:37;;;;;;;6.78;4.57;;;13.20;99.90;;;;;;5093818;28;20024;-82
2023/05/15 03:15:03;;;;;;;5.85;4.30;;;13.20;99.90;;;;;;5095084;28;20100;-83
2023/05/15 03:17:29;;;;;;;6.53;4.25;;;13.20;99.90;;;;;;5093271;28;20051;-82
2023/05/15 03:19:55;;;;;;;5.93;4.28;;;13.20;99.90;;;;;;5093773;28;20358;-82
2023/05/15 03:22:20;;;;;;;7.63;4.68;;;13.20;99.90;;;;;;5093940;28;20035;-83
2023/05/15 03:24:46;;;;;;;8.48;4.13;;;13.20;99.90;;;;;;5093613;28;20024;-82
2023/05/15 03:27:12;;;;;;;5.75;4.15;;;13.20;99.90;;;;;;5094196;28;20028;-82
2023/05/15 03:29:37;;;;;;;7.55;4.28;;;13.20;99.90;;;;;;5094532;28;20102;-81
2023/05/15 03:32:03;;;;;;;5.68;4.07;;;13.20;99.90;;;;;;5093626;28;20043;-81
2023/05/15 03:34:29;;;;;;;8.20;4.18;;;13.20;99.90;;;;;;5093043;28;20024;-81
2023/05/15 03:36:54;;;;;;;6.07;4.07;;;13.20;99.90;;;;;;5093518;28;20082;-82
2023/05/15 03:39:20;;;;;;;5.28;4.28;;;13.10;99.90;;;;;;5094240;28;20024;-82
2023/05/15 03:41:45;;;;;;;6.70;4.13;;;13.10;99.90;;;;;;5093592;28;20132;-82
2023/05/15 03:44:11;;;;;;;7.22;4.18;;;13.10;99.90;;;;;;5093981;28;20024;-82
2023/05/15 03:46:37;;;;;;;6.82;3.92;;;13.10;99.90;;;;;;5093322;28;20548;-82
2023/05/15 03:49:02;;;;;;;7.55;4.63;;;13.10;99.90;;;;;;5093167;28;20039;-81
2023/05/15 03:51:28;;;;;;;9.23;4.30;;;13.10;99.90;;;;;;5092063;28;20372;-82
2023/05/15 03:53:53;;;;;;;6.82;4.53;;;13.10;99.90;;;;;;5094152;28;20030;-82
2023/05/15 03:56:20;;;;;;;6.35;4.55;;;13.10;99.90;;;;;;5092883;28;20066;-82
2023/05/15 03:58:45;;;;;;;7.18;3.88;;;13.10;99.90;;;;;;5093418;28;20074;-81
2023/05/15 04:01:11;;;;;;;8.38;4.45;;;13.10;99.90;;;;;;5093701;28;20453;-82
2023/05/15 04:03:36;;;;;;;7.30;4.45;;;13.10;99.90;;;;;;5093384;28;20066;-82
2023/05/15 04:06:02;;;;;;;5.97;3.88;;;13.10;99.90;;;;;;5092861;28;20105;-83
2023/05/15 04:08:28;;;;;;;7.45;4.07;;;13.10;99.90;;;;;;5093344;28;20032;-82
2023/05/15 04:10:53;;;;;;;5.88;4.05;;;13.10;99.90;;;;;;5093127;28;20032;-82
2023/05/15 04:13:19;;;;;;;6.22;4.55;;;13.10;99.90;;;;;;5092844;28;20024;-82
2023/05/15 04:15:45;;;;;;;7.97;4.30;;;13.10;99.90;;;;;;5092928;28;20082;-82
2023/05/15 04:18:10;;;;;;;5.90;4.25;;;13.10;99.90;;;;;;5092583;28;20123;-81
2023/05/15 04:20:36;;;;;;;7.55;4.28;;;13.10;99.90;;;;;;5092965;28;20052;-81
2023/05/15 04:23:04;;;;;;;7.30;4.65;;;13.00;99.90;;;;;;5092793;28;20032;-80
2023/05/15 04:25:30;;;;;;;6.25;4.13;;;13.00;99.90;;;;;;5092722;28;20073;-81
2023/05/15 04:27:56;;;;;;;6.50;4.10;;;13.10;99.90;;;;;;5096000;28;20494;-80
2023/05/15 04:30:21;;;;;;;6.05;4.15;;;13.00;99.90;;;;;;5095141;28;20028;-80
2023/05/15 04:32:47;;;;;;;6.15;3.95;;;13.10;99.90;;;;;;5094912;28;20384;-81
2023/05/15 04:35:14;;;;;;;5.85;4.35;;;13.10;99.90;;;;;;5095550;28;20028;-81
2023/05/15 04:37:41;;;;;;;5.78;4.30;;;13.00;99.90;;;;;;5100286;28;20115;-80
2023/05/15 04:40:07;;;;;;;7.88;4.60;;;13.10;99.90;;;;;;5097233;28;20129;-80
2023/05/15 04:42:34;;;;;;;6.43;4.60;;;13.10;99.90;;;;;;5092125;28;20021;-80
2023/05/15 04:45:01;;;;;;;7.40;4.53;;;13.00;99.90;;;;;;5092535;28;20107;-80
2023/05/15 04:47:26;;;;;;;8.07;4.60;;;13.00;99.90;;;;;;5092788;28;20079;-81
2023/05/15 04:49:52;;;;;;;7.75;5.00;;;13.00;99.90;;;;;;5092282;28;20453;-80
2023/05/15 04:52:18;;;;;;;7.43;5.00;;;13.10;99.90;;;;;;5092033;28;20028;-81
2023/05/15 04:54:43;;;;;;;8.20;5.00;;;13.00;99.90;;;;;;5093120;28;20103;-81
2023/05/15 04:57:09;;;;;;;8.35;5.28;;;13.00;99.90;;;;;;5092460;28;20028;-81
2023/05/15 04:59:35;;;;;;;7.53;5.07;;;13.00;99.90;;;;;;5093168;28;20028;-81
2023/05/15 05:02:01;;;;;;;10.02;4.53;;;13.00;99.90;;;;;;5092572;28;20033;-81
2023/05/15 05:04:27;;;;;;;10.30;5.35;;;13.10;99.90;;;;;;5095422;28;20028;-81
2023/05/15 05:06:52;;;;;;;7.38;4.78;;;13.10;99.90;;;;;;5096959;28;20028;-80
2023/05/15 05:09:19;;;;;;;9.50;5.60;;;13.10;99.90;;;;;;5097059;28;20028;-81
2023/05/15 05:11:45;;;;;;;10.52;4.88;;;13.10;99.90;;;;;;5096410;28;20388;-81
2023/05/15 05:14:12;;;;;;;10.63;4.95;;;13.10;99.90;;;;;;5100728;28;20566;-80
2023/05/15 05:16:38;;;;;;;9.80;5.70;;;13.10;99.90;;;;;;5101001;28;20028;-80
2023/05/15 05:19:04;;;;;;;7.32;5.00;;;13.10;99.90;;;;;;5101644;28;20028;-80
2023/05/15 05:21:30;;;;;;;10.77;5.10;;;13.10;99.90;;;;;;5096424;28;20031;-79
2023/05/15 05:23:56;;;;;;;13.77;5.28;;;13.10;99.90;;;;;;5095560;28;20115;-80
2023/05/15 05:26:22;;;;;;;12.18;5.13;;;13.20;99.90;;;;;;5096065;28;20048;-81
2023/05/15 05:28:47;;;;;;;12.85;5.40;;;13.30;99.90;;;;;;5095356;28;20036;-82
2023/05/15 05:31:13;;;;;;;8.90;4.45;;;13.30;99.90;;;;;;5095550;28;20028;-83
2023/05/15 05:33:39;;;;;;;7.38;4.25;;;13.30;99.90;;;;;;5094971;28;20068;-82
2023/05/15 05:36:05;;;;;;;9.52;4.35;;;13.40;99.90;;;;;;5095514;28;20077;-82
2023/05/15 05:38:31;;;;;;;6.97;4.13;;;13.50;99.90;;;;;;5094964;28;20396;-82
2023/05/15 05:40:57;;;;;;;7.03;4.00;;;13.60;99.90;;;;;;5095432;28;20048;-81
2023/05/15 05:43:25;;;;;;;6.35;3.90;;;13.70;99.90;;;;;;5095221;28;20031;-82
2023/05/15 05:45:50;;;;;;;11.20;3.97;;;13.80;99.90;;;;;;5095419;28;20024;-81
2023/05/15 05:48:16;;;;;;;5.82;3.75;;;13.90;99.90;;;;;;5094746;28;20035;-83
2023/05/15 05:50:42;;;;;;;9.60;3.60;;;14.00;99.90;;;;;;5087532;28;20457;-82
2023/05/15 05:53:07;;;;;;;6.15;3.30;;;14.00;99.90;;;;;;5095978;28;20020;-82
2023/05/15 05:55:33;;;;;;;6.80;3.50;;;14.00;99.90;;;;;;5094958;28;20476;-81
2023/05/15 05:57:58;;;;;;;5.53;3.55;;;14.10;99.90;;;;;;5094224;28;20439;-81
2023/05/15 06:00:24;;;;;;;4.15;3.15;;;14.10;99.90;;;;;;5095245;28;20027;-80
2023/05/15 06:02:54;;;;;;;5.20;3.45;;;14.10;99.90;;;;;;5095750;28;20073;-80
2023/05/15 06:05:19;;;;;;;4.53;3.15;;;14.10;99.90;;;;;;5095468;28;20024;-81
2023/05/15 06:07:45;;;;;;;5.03;3.08;;;14.10;99.90;;;;;;5094327;28;20479;-82
2023/05/15 06:10:11;;;;;;;5.28;3.25;;;14.10;99.90;;;;;;5094273;28;20118;-81
2023/05/15 06:12:37;;;;;;;5.80;3.50;;;14.10;99.90;;;;;;5093429;28;20039;-82
2023/05/15 06:15:03;;;;;;;7.65;3.55;;;14.10;99.90;;;;;;5093386;28;20024;-82
2023/05/15 06:17:29;;;;;;;6.55;3.17;;;14.10;99.90;;;;;;5093547;28;20032;-82
2023/05/15 06:19:54;;;;;;;5.40;3.10;;;14.10;99.90;;;;;;5093534;28;20055;-82
2023/05/15 06:22:20;;;;;;;8.48;3.63;;;14.10;99.90;;;;;;5095015;28;20441;-81
2023/05/15 06:24:46;;;;;;;4.82;2.85;;;14.20;99.90;;;;;;5095311;28;20031;-82
2023/05/15 06:27:11;;;;;;;7.07;2.95;;;14.10;99.90;;;;;;5093924;28;20057;-82
2023/05/15 06:29:37;;;;;;;5.18;2.90;;;14.10;99.90;;;;;;5093249;28;20032;-82
2023/05/15 06:32:03;;;;;;;3.92;2.70;;;14.10;99.90;;;;;;5093972;28;20032;-82
2023/05/15 06:34:28;;;;;;;5.63;2.95;;;14.20;99.90;;;;;;5093388;28;20023;-80
2023/05/15 06:36:54;;;;;;;5.22;3.05;;;14.20;99.90;;;;;;5093432;28;20038;-80
2023/05/15 06:39:19;;;;;;;4.78;2.95;;;14.20;99.90;;;;;;5094027;28;20034;-80
2023/05/15 06:41:45;;;;;;;5.47;3.13;;;14.20;99.90;;;;;;5093513;28;20044;-80
2023/05/15 06:44:10;;;;;;;4.47;3.20;;;14.20;99.90;;;;;;5093811;28;20019;-80
2023/05/15 06:46:36;;;;;;;7.60;3.08;;;14.20;99.90;;;;;;5094060;28;20114;-81
2023/05/15 06:49:02;;;;;;;5.57;2.95;;;14.20;99.90;;;;;;5101017;28;20027;-80
2023/05/15 06:51:27;;;;;;;6.53;3.05;;;14.30;99.90;;;;;;5100538;28;20452;-81
2023/05/15 06:53:53;;;;;;;6.40;3.03;;;14.30;99.90;;;;;;5093584;28;20026;-81
2023/05/15 06:56:18;;;;;;;7.25;3.20;;;14.40;99.90;;;;;;5094470;28;20027;-81
2023/05/15 06:58:44;;;;;;;5.00;3.10;;;14.40;99.90;;;;;;5093195;28;20051;-81
2023/05/15 07:01:10;;;;;;;6.45;3.25;;;14.30;99.90;;;;;;5093759;28;20038;-81
2023/05/15 07:03:35;;;;;;;6.65;2.75;;;14.40;99.90;;;;;;5093340;28;20024;-81
2023/05/15 07:06:01;;;;;;;5.10;2.90;;;14.40;99.90;;;;;;5093192;28;20119;-81
2023/05/15 07:08:27;;;;;;;4.20;3.00;;;14.40;99.90;;;;;;5093204;28;20045;-81
2023/05/15 07:10:52;;;;;;;8.65;3.10;;;14.40;99.90;;;;;;5093556;28;20460;-82
2023/05/15 07:13:19;;;;;;;4.30;3.00;;;14.40;99.90;;;;;;5094410;28;20081;-82
2023/05/15 07:15:45;;;;;;;4.47;3.15;;;14.40;99.90;;;;;;5093393;28;20028;-81
2023/05/15 07:18:10;;;;;;;7.00;2.88;;;14.50;99.90;;;;;;5094262;28;20023;-82
2023/05/15 07:20:36;;;;;;;4.22;2.85;;;14.50;99.90;;;;;;5092619;28;20031;-82
2023/05/15 07:23:02;;;;;;;8.48;2.70;;;14.50;99.90;;;;;;5094267;28;20418;-83
2023/05/15 07:25:28;;;;;;;3.70;2.80;;;14.60;99.90;;;;;;5093882;28;20091;-82
2023/05/15 07:27:53;;;;;;;5.63;2.90;;;14.60;99.90;;;;;;5092873;28;20035;-82
2023/05/15 07:30:19;;;;;;;3.78;2.90;;;14.60;99.90;;;;;;5092298;28;20111;-82
2023/05/15 07:32:45;;;;;;;7.15;2.70;;;14.60;99.90;;;;;;5093193;28;20039;-82
2023/05/15 07:35:11;;;;;;;4.60;2.60;;;14.70;99.90;;;;;;5092812;28;20081;-83
2023/05/15 07:37:37;;;;;;;4.65;2.90;;;14.70;99.90;;;;;;5092548;28;20052;-83
2023/05/15 07:40:03;;;;;;;3.65;2.60;;;14.80;99.90;;;;;;5093543;28;20046;-84
2023/05/15 07:42:29;;;;;;;4.30;2.85;;;14.80;99.90;;;;;;5092889;28;20444;-82
2023/05/15 07:44:54;;;;;;;4.00;2.75;;;14.90;99.90;;;;;;5092949;28;20115;-83
2023/05/15 07:47:20;;;;;;;5.80;2.88;;;14.90;99.90;;;;;;5091462;28;20031;-84
2023/05/15 07:49:46;;;;;;;4.13;2.78;;;15.00;99.90;;;;;;5105351;28;20027;-83
2023/05/15 07:52:11;;;;;;;8.30;3.20;;;14.90;99.90;;;;;;5093753;28;20020;-83
2023/05/15 07:54:40;;;;;;;5.00;2.70;;;15.00;99.90;;;;;;5093447;28;20020;-81
2023/05/15 07:57:06;;;;;;;7.38;2.83;;;15.10;99.90;;;;;;5091934;28;20108;-83
2023/05/15 07:59:31;;;;;;;5.78;3.03;;;15.20;99.90;;;;;;5091233;28;20472;-82
2023/05/15 08:01:57;;;;;;;5.00;2.78;;;15.30;99.90;;;;;;5092337;28;20024;-82
2023/05/15 08:04:22;;;;;;;7.05;2.92;;;15.40;99.90;;;;;;5092308;28;20020;-82
2023/05/15 08:06:48;;;;;;;5.78;2.80;;;15.40;99.90;;;;;;5092215;28;20491;-81
2023/05/15 08:09:14;;;;;;;6.32;3.03;;;15.50;99.90;;;;;;5092448;28;20123;-82
2023/05/15 08:11:39;;;;;;;7.03;2.92;;;15.50;99.90;;;;;;5093022;28;20623;-82
2023/05/15 08:14:05;;;;;;;7.22;2.90;;;15.60;99.90;;;;;;5092803;28;20077;-84
2023/05/15 08:16:30;;;;;;;4.85;2.60;;;15.60;99.90;;;;;;5097165;28;20048;-83
2023/05/15 08:19:00;;;;;;;3.80;2.35;;;15.60;99.90;;;;;;5103952;28;20042;-81
2023/05/15 08:21:26;;;;;;;3.55;2.30;;;15.50;99.90;;;;;;5104998;28;20016;-82
2023/05/15 08:23:52;;;;;;;4.18;2.50;;;15.50;99.90;;;;;;5095909;28;20035;-82
2023/05/15 08:26:18;;;;;;;3.88;2.22;;;15.60;99.90;;;;;;5093805;28;20020;-81
2023/05/15 08:28:43;;;;;;;4.63;2.55;;;15.60;99.90;;;;;;5090372;28;20046;-81
2023/05/15 08:31:09;;;;;;;4.72;2.33;;;15.60;99.90;;;;;;5093156;28;20032;-82
2023/05/15 08:33:34;;;;;;;4.53;2.13;;;15.60;99.90;;;;;;5092881;28;20028;-81
2023/05/15 08:36:00;;;;;;;3.40;2.50;;;15.60;99.90;;;;;;5092404;28;20387;-80
2023/05/15 08:38:26;;;;;;;3.72;2.10;;;15.60;99.90;;;;;;5094787;28;20031;-81
2023/05/15 08:40:56;;;;;;;2.85;2.08;;;15.60;99.90;;;;;;5095519;28;20055;-81
2023/05/15 08:43:22;;;;;;;6.15;2.10;;;15.70;99.90;;;;;;5096787;28;20081;-83
2023/05/15 08:45:48;;;;;;;2.80;2.15;;;15.70;99.90;;;;;;5094464;28;20028;-87
2023/05/15 08:48:19;;;;;;;3.00;2.20;;;15.70;99.90;;;;;;5089973;28;20203;-84
2023/05/15 08:50:46;;;;;;;2.30;1.83;;;15.80;99.90;;;;;;5074327;28;20060;-83
2023/05/15 08:53:12;;;;;;;3.13;2.10;;;15.80;99.90;;;;;;5092762;28;20024;-84
2023/05/15 08:55:39;;;;;;;3.10;2.20;;;15.90;99.90;;;;;;5094994;28;20024;-83
2023/05/15 08:58:05;;;;;;;2.03;1.83;;;16.00;99.90;;;;;;5095716;28;20042;-86
2023/05/15 09:00:31;;;;;;;2.28;1.70;;;16.10;99.90;;;;;;5095048;28;20028;-87
2023/05/15 09:03:00;;;;;;;2.90;2.08;;;16.10;99.90;;;;;;5095818;28;20039;-86
2023/05/15 09:05:27;;;;;;;2.60;2.00;;;16.10;99.90;;;;;;5094618;28;20377;-86
2023/05/15 09:07:54;;;;;;;5.38;1.85;;;16.20;99.90;;;;;;5094933;28;20039;-84
2023/05/15 09:10:21;;;;;;;2.22;1.90;;;16.10;99.90;;;;;;5093353;28;20043;-83
2023/05/15 09:12:50;;;;;;;4.35;2.10;;;16.20;99.90;;;;;;5094651;28;20032;-83
2023/05/15 09:15:17;;;;;;;4.25;2.08;;;16.20;99.90;;;;;;5094721;28;20161;-82
2023/05/15 09:17:44;;;;;;;4.25;2.40;;;16.30;99.90;;;;;;5094305;28;20028;-83
2023/05/15 09:20:35;;;;;;;3.05;2.00;;;16.30;99.90;;;;;;5101321;28;20073;-82
2023/05/15 09:23:04;;;;;;;3.13;2.20;;;16.40;99.90;;;;;;5095895;28;20500;-83
2023/05/15 09:25:38;;;;;;;4.22;2.25;;;16.50;99.90;;;;;;5088416;28;20024;-84
2023/05/15 09:28:08;;;;;;;3.70;1.98;;;16.40;99.90;;;;;;5091066;28;20530;-83
2023/05/15 09:30:37;;;;;;;5.43;2.10;;;16.50;99.90;;;;;;5093912;28;20036;-85
2023/05/15 09:33:03;;;;;;;2.55;1.95;;;16.50;99.90;;;;;;5095698;28;20028;-84
2023/05/15 09:35:34;;;;;;;4.93;2.28;;;16.60;99.90;;;;;;5094179;28;20020;-84
2023/05/15 09:38:01;;;;;;;5.15;2.20;;;16.70;99.90;;;;;;5094672;28;20036;-83
2023/05/15 09:40:31;;;;;;;8.50;3.45;;;16.70;99.90;;;;;;5094671;28;20052;-80
2023/05/15 09:42:57;;;;;;;4.93;3.25;;;16.80;99.90;;;;;;5093456;28;20064;-80
2023/05/15 09:45:28;;;;;;;4.22;2.70;;;16.80;99.90;;;;;;5093005;28;20032;-82
2023/05/15 09:47:54;;;;;;;2.53;2.20;;;16.70;99.90;;;;;;5093878;28;20043;-82
2023/05/15 09:50:31;;;;;;;2.60;2.40;;;16.80;99.90;;;;;;5099249;28;20090;-82
2023/05/15 09:52:58;;;;;;;5.63;2.33;;;16.80;99.90;;;;;;5093950;28;20104;-81
2023/05/15 09:55:24;;;;;;;4.43;2.40;;;16.90;99.90;;;;;;5094326;28;20512;-82
2023/05/15 09:58:11;;;;;;;6.05;2.80;;;17.00;99.90;;;;;;5093581;28;20032;-81
2023/05/15 10:00:38;;;;;;;3.92;2.58;;;17.20;99.90;;;;;;5091657;28;20043;-83
2023/05/15 10:03:05;;;;;;;5.20;2.30;;;17.20;99.90;;;;;;5094761;28;20685;-79
2023/05/15 10:05:31;;;;;;;3.00;2.38;;;17.40;99.90;;;;;;5093633;28;20032;-81
2023/05/15 10:07:58;;;;;;;5.18;2.20;;;17.40;99.90;;;;;;5094115;28;20050;-82
2023/05/15 10:10:25;;;;;;;2.97;2.10;;;17.50;99.90;;;;;;5094502;28;20024;-80
2023/05/15 10:12:52;;;;;;;4.78;2.22;;;17.50;99.90;;;;;;5095439;28;20462;-82
2023/05/15 10:15:19;;;;;;;3.03;2.35;;;17.60;99.90;;;;;;5094286;28;20042;-82
2023/05/15 10:17:48;;;;;;;3.20;2.30;;;17.80;99.90;;;;;;5093752;28;20030;-82
2023/05/15 10:20:16;;;;;;;3.67;2.22;;;17.80;99.90;;;;;;5103312;28;20528;-82
2023/05/15 10:22:45;;;;;;;2.35;1.98;;;17.90;99.90;;;;;;5094999;28;20020;-82
2023/05/15 10:25:16;;;;;;;2.25;1.83;;;17.90;99.90;;;;;;5093922;28;20032;-81
2023/05/15 10:27:42;;;;;;;2.70;1.88;;;17.90;99.90;;;;;;5094622;28;20439;-82
2023/05/15 10:30:13;;;;;;;2.10;1.90;;;17.90;99.90;;;;;;5093848;28;20062;-82
2023/05/15 10:32:40;;;;;;;2.10;1.90;;;17.90;99.90;;;;;;5093330;28;20032;-82
2023/05/15 10:35:09;;;;;;;2.05;1.85;;;17.90;99.90;;;;;;5094102;28;20039;-82
2023/05/15 10:37:35;;;;;;;2.60;1.73;;;18.00;99.90;;;;;;5093123;28;20149;-82
2023/05/15 10:40:02;;;;;;;2.42;1.77;;;18.20;99.90;;;;;;5094627;28;20071;-82
2023/05/15 10:42:29;;;;;;;2.20;1.80;;;18.40;99.90;;;;;;5093937;28;20035;-81
2023/05/15 10:44:58;;;;;;;1.88;1.70;;;18.50;99.90;;;;;;5094026;28;20051;-82
2023/05/15 10:47:25;;;;;;;2.38;1.77;;;18.60;99.90;;;;;;5093900;28;20028;-81
2023/05/15 10:49:51;;;;;;;5.43;2.20;;;18.70;99.90;;;;;;5094835;28;20028;-81
2023/05/15 10:52:17;;;;;;;2.50;1.90;;;18.70;99.90;;;;;;5093868;28;20205;-81
2023/05/15 10:54:44;;;;;;;2.00;1.70;;;18.90;99.90;;;;;;5092916;28;20020;-81
2023/05/15 10:57:09;;;;;;;1.88;1.60;;;18.90;99.90;;;;;;5093190;28;20028;-81
2023/05/15 10:59:35;;;;;;;5.05;2.00;;;19.10;99.60;;;;;;5094013;28;20081;-81
2023/05/15 11:02:20;;;;;;;3.25;1.92;;;19.20;99.90;;;;;;5093687;28;20036;-81
2023/05/15 11:04:46;;;;;;;3.72;2.38;;;19.30;99.90;;;;;;5092796;28;20030;-81
2023/05/15 11:07:13;;;;;;;3.08;1.80;;;19.30;99.90;;;;;;5093288;28;20032;-81
2023/05/15 11:09:40;;;;;;;1.52;1.33;;;19.30;99.90;;;;;;5092366;28;20036;-81
2023/05/15 11:12:10;;;;;;;0.80;0.80;;;19.10;96.60;;;;;;5093310;28;20024;-81
2023/05/15 11:15:03;;;;;;;1.48;1.02;;;18.80;97.00;;;;;;5092294;28;20393;-80
2023/05/15 11:17:32;;;;;;;2.95;1.08;;;18.60;97.00;;;;;;5092159;28;20028;-82
2023/05/15 11:19:58;;;;;;;1.73;0.90;;;18.40;98.20;;;;;;5105270;28;20032;-81
2023/05/15 11:22:40;;;;;;;1.70;1.17;;;18.30;99.90;;;;;;5094454;28;20028;-81
2023/05/15 11:25:13;;;;;;;2.63;0.90;;;18.30;99.90;;;;;;5092765;28;20032;-80
2023/05/15 11:27:43;;;;;;;0.98;0.80;;;18.30;99.90;;;;;;5093370;28;20067;-81
2023/05/15 11:30:21;;;;;;;1.60;0.95;;;18.00;99.90;;;;;;5093622;28;20153;-81
2023/05/15 11:32:58;;;;;;;1.90;0.90;;;17.90;99.90;;;;;;5092239;28;20035;-81
2023/05/15 11:35:28;;;;;;;3.08;1.00;;;17.80;99.90;;;;;;5086198;28;20063;-82
2023/05/15 11:38:02;;;;;;;3.53;1.20;;;17.70;99.90;;;;;;5092900;28;20066;-81
2023/05/15 11:40:42;;;;;;;1.85;1.13;;;17.60;99.90;;;;;;5092582;28;20048;-80
2023/05/15 11:43:20;;;;;;;3.03;1.08;;;17.50;99.90;;;;;;5093881;28;20049;-81
2023/05/15 11:45:54;;;;;;;1.60;1.20;;;17.50;99.90;;;;;;5088373;28;20110;-81
2023/05/15 11:48:21;;;;;;;1.52;1.08;;;17.40;99.90;;;;;;5076276;28;20503;-81
2023/05/15 11:50:47;;;;;;;3.13;1.30;;;17.30;99.90;;;;;;5092333;28;20024;-80
2023/05/15 11:53:13;;;;;;;2.65;1.30;;;17.30;99.90;;;;;;5093203;28;20113;-81
2023/05/15 11:55:40;;;;;;;3.25;1.27;;;17.30;99.90;;;;;;5092080;28;20020;-80
2023/05/15 11:58:18;;;;;;;2.63;1.20;;;17.30;99.90;;;;;;5092695;28;20101;-80
2023/05/15 12:00:45;;;;;;;2.00;1.45;;;17.50;99.90;;;;;;5092161;28;20112;-81
2023/05/15 12:03:30;;;;;;;3.97;1.42;;;17.60;99.90;;;;;;5093760;28;20142;-81
2023/05/15 12:05:56;;;;;;;1.33;1.10;;;17.60;99.90;;;;;;5092144;28;20042;-81
2023/05/15 12:08:22;;;;;;;3.13;1.65;;;17.70;99.90;;;;;;5093546;28;20032;-81
2023/05/15 12:10:48;;;;;;;2.75;1.30;;;17.80;99.90;;;;;;5091657;28;20028;-80
2023/05/15 12:13:16;;;;;;;2.47;1.38;;;17.70;99.90;;;;;;5091426;28;20142;-81
2023/05/15 12:15:45;;;;;;;2.50;1.60;;;17.80;99.90;;;;;;5091622;28;20024;-81
2023/05/15 12:18:12;;;;;;;1.83;1.38;;;17.90;99.90;;;;;;5092065;28;20036;-80
2023/05/15 12:20:43;;;;;;;4.40;1.55;;;18.10;99.90;;;;;;5113934;28;20041;-82
2023/05/15 12:23:09;;;;;;;4.32;1.73;;;18.30;99.90;;;;;;5109490;28;20031;-82
2023/05/15 12:25:35;;;;;;;2.22;1.42;;;18.30;99.90;;;;;;5094878;28;20380;-81
2023/05/15 12:28:04;;;;;;;1.92;1.70;;;18.40;99.90;;;;;;5092357;28;20100;-81
2023/05/15 12:30:31;;;;;;;1.50;1.40;;;18.60;99.90;;;;;;5093099;28;20052;-82
2023/05/15 12:33:03;;;;;;;1.50;1.40;;;18.80;99.90;;;;;;5092413;28;20031;-81
2023/05/15 12:35:29;;;;;;;2.90;1.45;;;19.00;99.90;;;;;;5091776;28;20028;-81
2023/05/15 12:37:55;;;;;;;1.50;1.40;;;19.10;99.90;;;;;;5091771;28;20051;-81
2023/05/15 12:40:21;;;;;;;1.52;1.25;;;19.20;99.90;;;;;;5093335;28;20449;-81
2023/05/15 12:42:55;;;;;;;1.40;1.30;;;19.20;99.90;;;;;;5092263;28;20024;-81
2023/05/15 12:45:22;;;;;;;2.05;1.20;;;19.40;99.90;;;;;;5093397;28;20016;-84
2023/05/15 12:47:49;;;;;;;3.08;1.70;;;19.60;99.90;;;;;;5091759;28;20082;-82
2023/05/15 12:50:20;;;;;;;1.50;1.20;;;19.90;99.90;;;;;;5092464;28;20032;-82